To NAV CANADA Home Page Login to a new session Search on AWWS site Feedback and Comments Disclaimer Vers la page française équivalente Tips FAQ What's new on the site To the Forecasts and Observations / NOTAM section To "File a Flight Plan" website Publications and other links Update of the User's profile FIC Telephone Numbers My Weather Data Folder Route Weather Data Regional Weather Data Local Weather Data To the Forecasts and Observations / NOTAM section
Request Generated 05/06/2016 at 14:59:31 UTC . Weather information available at that time is displayed.

METAR/TAF

EUREKA/NU    

METAR CWEU 061400Z 00000KT 15SM SKC M17/M20 A3024 RMK SLP242=
METAR CWEU 061300Z 07003KT 360V070 15SM SKC M17/M19 A3024 RMK SLP243=
METAR CWEU 061200Z 04003KT 15SM SKC M18/M21 A3024 RMK SLP243=

TAF CYEU 061038Z 0611/0623 ADVISORY OFFSITE VRB03KT P6SM SKC
RMK NXT FCST BY 061800Z=
Your time UTC time
Weather data provided by Environment Canada and NAV CANADA